sensor_id;sensor_type;location;lat;lon;timestamp;temperature;humidity
58413;DHT22;44209;52.952;6.790;2023-09-30T00:01:42;12.40;99.90
58413;DHT22;44209;52.952;6.790;2023-09-30T00:04:09;12.30;99.90
58413;DHT22;44209;52.952;6.790;2023-09-30T00:06:35;12.30;99.90
58413;DHT22;44209;52.952;6.790;2023-09-30T00:09:01;12.20;99.90
58413;DHT22;44209;52.952;6.790;2023-09-30T00:11:26;12.20;99.90
58413;DHT22;44209;52.952;6.790;2023-09-30T00:13:52;12.10;99.90
58413;DHT22;44209;52.952;6.790;2023-09-30T00:16:18;12.20;99.90
58413;DHT22;44209;52.952;6.790;2023-09-30T00:18:44;12.20;99.90
58413;DHT22;44209;52.952;6.790;2023-09-30T00:21:10;12.20;99.90
58413;DHT22;44209;52.952;6.790;2023-09-30T00:23:36;12.20;99.90
58413;DHT22;44209;52.952;6.790;2023-09-30T00:26:02;12.20;99.90
58413;DHT22;44209;52.952;6.790;2023-09-30T00:28:28;12.20;99.90
58413;DHT22;44209;52.952;6.790;2023-09-30T00:30:54;12.20;99.90
58413;DHT22;44209;52.952;6.790;2023-09-30T00:33:19;12.10;99.90
58413;DHT22;44209;52.952;6.790;2023-09-30T00:35:45;12.10;99.90
58413;DHT22;44209;52.952;6.790;2023-09-30T00:38:11;12.20;99.90
58413;DHT22;44209;52.952;6.790;2023-09-30T00:40:37;12.20;99.90
58413;DHT22;44209;52.952;6.790;2023-09-30T00:43:03;12.10;99.90
58413;DHT22;44209;52.952;6.790;2023-09-30T00:45:30;12.10;99.90
58413;DHT22;44209;52.952;6.790;2023-09-30T00:47:56;12.10;99.90
58413;DHT22;44209;52.952;6.790;2023-09-30T00:50:22;12.10;99.90
58413;DHT22;44209;52.952;6.790;2023-09-30T00:52:49;12.00;99.90
58413;DHT22;44209;52.952;6.790;2023-09-30T00:55:15;12.00;99.90
58413;DHT22;44209;52.952;6.790;2023-09-30T00:57:42;12.00;99.90
58413;DHT22;44209;52.952;6.790;2023-09-30T01:00:11;11.90;99.90
58413;DHT22;44209;52.952;6.790;2023-09-30T01:02:39;11.90;99.90
58413;DHT22;44209;52.952;6.790;2023-09-30T01:05:06;11.90;99.90
58413;DHT22;44209;52.952;6.790;2023-09-30T01:07:33;11.80;99.90
58413;DHT22;44209;52.952;6.790;2023-09-30T01:09:59;11.80;99.90
58413;DHT22;44209;52.952;6.790;2023-09-30T01:12:25;11.80;99.90
58413;DHT22;44209;52.952;6.790;2023-09-30T01:14:57;11.90;99.90
58413;DHT22;44209;52.952;6.790;2023-09-30T01:17:23;11.90;99.90
58413;DHT22;44209;52.952;6.790;2023-09-30T01:19:49;11.90;99.90
58413;DHT22;44209;52.952;6.790;2023-09-30T01:22:15;11.90;99.90
58413;DHT22;44209;52.952;6.790;2023-09-30T01:24:42;11.90;99.90
58413;DHT22;44209;52.952;6.790;2023-09-30T01:27:08;11.90;99.90
58413;DHT22;44209;52.952;6.790;2023-09-30T01:29:35;11.90;99.90
58413;DHT22;44209;52.952;6.790;2023-09-30T01:32:04;11.90;99.90
58413;DHT22;44209;52.952;6.790;2023-09-30T01:34:33;11.80;99.90
58413;DHT22;44209;52.952;6.790;2023-09-30T01:36:58;11.80;99.90
58413;DHT22;44209;52.952;6.790;2023-09-30T01:39:25;11.80;99.90
58413;DHT22;44209;52.952;6.790;2023-09-30T01:41:50;11.80;99.90
58413;DHT22;44209;52.952;6.790;2023-09-30T01:44:16;11.80;99.90
58413;DHT22;44209;52.952;6.790;2023-09-30T01:46:42;11.90;99.90
58413;DHT22;44209;52.952;6.790;2023-09-30T01:49:07;11.90;99.90
58413;DHT22;44209;52.952;6.790;2023-09-30T01:51:33;11.90;99.90
58413;DHT22;44209;52.952;6.790;2023-09-30T01:53:59;11.90;99.90
58413;DHT22;44209;52.952;6.790;2023-09-30T01:56:25;11.90;99.90
58413;DHT22;44209;52.952;6.790;2023-09-30T01:58:51;11.80;99.90
58413;DHT22;44209;52.952;6.790;2023-09-30T02:01:16;11.80;99.90
58413;DHT22;44209;52.952;6.790;2023-09-30T02:03:42;11.80;99.90
58413;DHT22;44209;52.952;6.790;2023-09-30T02:06:08;11.80;99.90
58413;DHT22;44209;52.952;6.790;2023-09-30T02:08:34;11.90;99.90
58413;DHT22;44209;52.952;6.790;2023-09-30T02:11:02;11.90;99.90
58413;DHT22;44209;52.952;6.790;2023-09-30T02:13:29;11.90;99.90
58413;DHT22;44209;52.952;6.790;2023-09-30T02:15:55;11.80;99.90
58413;DHT22;44209;52.952;6.790;2023-09-30T02:18:23;11.80;99.90
58413;DHT22;44209;52.952;6.790;2023-09-30T02:20:49;11.80;99.90
58413;DHT22;44209;52.952;6.790;2023-09-30T02:23:17;11.80;99.90
58413;DHT22;44209;52.952;6.790;2023-09-30T02:25:43;11.90;99.90
58413;DHT22;44209;52.952;6.790;2023-09-30T02:28:09;11.90;99.90
58413;DHT22;44209;52.952;6.790;2023-09-30T02:30:35;11.90;99.90
58413;DHT22;44209;52.952;6.790;2023-09-30T02:33:01;11.90;99.90
58413;DHT22;44209;52.952;6.790;2023-09-30T02:35:27;11.90;99.90
58413;DHT22;44209;52.952;6.790;2023-09-30T02:37:53;11.90;99.90
58413;DHT22;44209;52.952;6.790;2023-09-30T02:40:19;11.90;99.90
58413;DHT22;44209;52.952;6.790;2023-09-30T02:42:45;12.00;99.90
58413;DHT22;44209;52.952;6.790;2023-09-30T02:45:12;11.90;99.90
58413;DHT22;44209;52.952;6.790;2023-09-30T02:47:39;11.90;99.90
58413;DHT22;44209;52.952;6.790;2023-09-30T02:50:09;11.90;99.90
58413;DHT22;44209;52.952;6.790;2023-09-30T02:52:36;11.90;99.90
58413;DHT22;44209;52.952;6.790;2023-09-30T02:55:04;11.90;99.90
58413;DHT22;44209;52.952;6.790;2023-09-30T02:57:30;11.90;99.90
58413;DHT22;44209;52.952;6.790;2023-09-30T02:59:56;11.90;99.90
58413;DHT22;44209;52.952;6.790;2023-09-30T03:02:24;12.00;99.90
58413;DHT22;44209;52.952;6.790;2023-09-30T03:04:50;12.00;99.90
58413;DHT22;44209;52.952;6.790;2023-09-30T03:07:18;12.00;99.90
58413;DHT22;44209;52.952;6.790;2023-09-30T03:09:45;12.10;99.90
58413;DHT22;44209;52.952;6.790;2023-09-30T03:12:12;12.10;99.90
58413;DHT22;44209;52.952;6.790;2023-09-30T03:14:38;12.10;99.90
58413;DHT22;44209;52.952;6.790;2023-09-30T03:17:03;12.10;99.90
58413;DHT22;44209;52.952;6.790;2023-09-30T03:19:29;12.10;99.90
58413;DHT22;44209;52.952;6.790;2023-09-30T03:21:55;12.10;99.90
58413;DHT22;44209;52.952;6.790;2023-09-30T03:24:21;12.20;99.90
58413;DHT22;44209;52.952;6.790;2023-09-30T03:26:48;12.20;99.90
58413;DHT22;44209;52.952;6.790;2023-09-30T03:29:15;12.20;99.90
58413;DHT22;44209;52.952;6.790;2023-09-30T03:31:40;12.20;99.90
58413;DHT22;44209;52.952;6.790;2023-09-30T03:34:06;12.20;99.90
58413;DHT22;44209;52.952;6.790;2023-09-30T03:36:32;12.20;99.90
58413;DHT22;44209;52.952;6.790;2023-09-30T03:38:58;12.20;99.90
58413;DHT22;44209;52.952;6.790;2023-09-30T03:41:32;12.20;99.90
58413;DHT22;44209;52.952;6.790;2023-09-30T03:43:58;12.20;99.90
58413;DHT22;44209;52.952;6.790;2023-09-30T03:46:24;12.20;99.90
58413;DHT22;44209;52.952;6.790;2023-09-30T03:48:51;12.30;99.90
58413;DHT22;44209;52.952;6.790;2023-09-30T03:51:17;12.30;99.90
58413;DHT22;44209;52.952;6.790;2023-09-30T03:53:46;12.30;99.90
58413;DHT22;44209;52.952;6.790;2023-09-30T03:56:12;12.30;99.90
58413;DHT22;44209;52.952;6.790;2023-09-30T03:58:42;12.30;99.90
58413;DHT22;44209;52.952;6.790;2023-09-30T04:01:11;12.30;99.90
58413;DHT22;44209;52.952;6.790;2023-09-30T04:03:40;12.30;99.90
58413;DHT22;44209;52.952;6.790;2023-09-30T04:06:06;12.30;99.90
58413;DHT22;44209;52.952;6.790;2023-09-30T04:08:33;12.30;99.90
58413;DHT22;44209;52.952;6.790;2023-09-30T04:10:59;12.30;99.90
58413;DHT22;44209;52.952;6.790;2023-09-30T04:13:26;12.20;99.90
58413;DHT22;44209;52.952;6.790;2023-09-30T04:15:51;12.20;99.90
58413;DHT22;44209;52.952;6.790;2023-09-30T04:18:17;12.30;99.90
58413;DHT22;44209;52.952;6.790;2023-09-30T04:20:46;12.30;99.90
58413;DHT22;44209;52.952;6.790;2023-09-30T04:23:12;12.20;99.90
58413;DHT22;44209;52.952;6.790;2023-09-30T04:25:38;12.20;99.90
58413;DHT22;44209;52.952;6.790;2023-09-30T04:28:06;12.20;99.90
58413;DHT22;44209;52.952;6.790;2023-09-30T04:30:32;12.20;99.90
58413;DHT22;44209;52.952;6.790;2023-09-30T04:33:01;12.10;99.90
58413;DHT22;44209;52.952;6.790;2023-09-30T04:35:30;12.10;99.90
58413;DHT22;44209;52.952;6.790;2023-09-30T04:37:56;12.10;99.90
58413;DHT22;44209;52.952;6.790;2023-09-30T04:40:26;12.10;99.90
58413;DHT22;44209;52.952;6.790;2023-09-30T04:42:52;12.10;99.90
58413;DHT22;44209;52.952;6.790;2023-09-30T04:45:24;12.00;99.90
58413;DHT22;44209;52.952;6.790;2023-09-30T04:47:52;12.00;99.90
58413;DHT22;44209;52.952;6.790;2023-09-30T04:50:18;12.00;99.90
58413;DHT22;44209;52.952;6.790;2023-09-30T04:52:47;11.90;99.90
58413;DHT22;44209;52.952;6.790;2023-09-30T04:55:13;11.90;99.90
58413;DHT22;44209;52.952;6.790;2023-09-30T04:57:45;11.90;99.90
58413;DHT22;44209;52.952;6.790;2023-09-30T05:00:15;11.80;99.90
58413;DHT22;44209;52.952;6.790;2023-09-30T05:02:43;11.80;99.90
58413;DHT22;44209;52.952;6.790;2023-09-30T05:05:10;11.80;99.90
58413;DHT22;44209;52.952;6.790;2023-09-30T05:07:36;11.80;99.90
58413;DHT22;44209;52.952;6.790;2023-09-30T05:10:03;11.80;99.90
58413;DHT22;44209;52.952;6.790;2023-09-30T05:12:36;11.80;99.90
58413;DHT22;44209;52.952;6.790;2023-09-30T05:15:01;11.80;99.90
58413;DHT22;44209;52.952;6.790;2023-09-30T05:17:28;11.80;99.90
58413;DHT22;44209;52.952;6.790;2023-09-30T05:19:56;11.70;99.90
58413;DHT22;44209;52.952;6.790;2023-09-30T05:22:22;11.70;99.90
58413;DHT22;44209;52.952;6.790;2023-09-30T05:24:53;11.70;99.90
58413;DHT22;44209;52.952;6.790;2023-09-30T05:27:19;11.70;99.90
58413;DHT22;44209;52.952;6.790;2023-09-30T05:29:45;11.70;99.90
58413;DHT22;44209;52.952;6.790;2023-09-30T05:32:10;11.70;99.90
58413;DHT22;44209;52.952;6.790;2023-09-30T05:34:36;11.70;99.90
58413;DHT22;44209;52.952;6.790;2023-09-30T05:37:04;11.70;99.90
58413;DHT22;44209;52.952;6.790;2023-09-30T05:39:30;11.70;99.90
58413;DHT22;44209;52.952;6.790;2023-09-30T05:41:57;11.80;99.90
58413;DHT22;44209;52.952;6.790;2023-09-30T05:44:23;11.80;99.90
58413;DHT22;44209;52.952;6.790;2023-09-30T05:46:49;11.80;99.90
58413;DHT22;44209;52.952;6.790;2023-09-30T05:49:15;11.90;99.90
58413;DHT22;44209;52.952;6.790;2023-09-30T05:51:41;11.80;99.90
58413;DHT22;44209;52.952;6.790;2023-09-30T05:54:07;11.90;99.90
58413;DHT22;44209;52.952;6.790;2023-09-30T05:56:39;11.90;99.90
58413;DHT22;44209;52.952;6.790;2023-09-30T05:59:05;11.80;99.90
58413;DHT22;44209;52.952;6.790;2023-09-30T06:01:32;11.80;99.90
58413;DHT22;44209;52.952;6.790;2023-09-30T06:03:58;11.80;99.90
58413;DHT22;44209;52.952;6.790;2023-09-30T06:06:25;11.80;99.90
58413;DHT22;44209;52.952;6.790;2023-09-30T06:08:51;11.80;99.90
58413;DHT22;44209;52.952;6.790;2023-09-30T06:11:26;11.80;99.90
58413;DHT22;44209;52.952;6.790;2023-09-30T06:13:55;11.90;99.90
58413;DHT22;44209;52.952;6.790;2023-09-30T06:16:21;11.80;99.90
58413;DHT22;44209;52.952;6.790;2023-09-30T06:18:48;11.80;99.90
58413;DHT22;44209;52.952;6.790;2023-09-30T06:21:15;11.80;99.90
58413;DHT22;44209;52.952;6.790;2023-09-30T06:23:43;11.80;99.90
58413;DHT22;44209;52.952;6.790;2023-09-30T06:26:09;11.80;99.90
58413;DHT22;44209;52.952;6.790;2023-09-30T06:28:35;11.80;99.90
58413;DHT22;44209;52.952;6.790;2023-09-30T06:31:07;11.80;99.90
58413;DHT22;44209;52.952;6.790;2023-09-30T06:33:36;11.80;99.90
58413;DHT22;44209;52.952;6.790;2023-09-30T06:36:11;11.80;99.90
58413;DHT22;44209;52.952;6.790;2023-09-30T06:38:39;11.90;99.90
58413;DHT22;44209;52.952;6.790;2023-09-30T06:41:06;11.90;99.90
58413;DHT22;44209;52.952;6.790;2023-09-30T06:43:32;11.90;99.90
58413;DHT22;44209;52.952;6.790;2023-09-30T06:45:58;12.00;99.90
58413;DHT22;44209;52.952;6.790;2023-09-30T06:48:24;12.00;99.90
58413;DHT22;44209;52.952;6.790;2023-09-30T06:50:50;12.00;99.90
58413;DHT22;44209;52.952;6.790;2023-09-30T06:53:18;12.10;99.90
58413;DHT22;44209;52.952;6.790;2023-09-30T06:55:45;12.20;99.90
58413;DHT22;44209;52.952;6.790;2023-09-30T06:58:11;12.20;99.90
58413;DHT22;44209;52.952;6.790;2023-09-30T07:00:38;12.30;99.90
58413;DHT22;44209;52.952;6.790;2023-09-30T07:03:04;12.30;99.90
58413;DHT22;44209;52.952;6.790;2023-09-30T07:05:30;12.40;99.90
58413;DHT22;44209;52.952;6.790;2023-09-30T07:07:56;12.40;99.90
58413;DHT22;44209;52.952;6.790;2023-09-30T07:10:22;12.50;99.90
58413;DHT22;44209;52.952;6.790;2023-09-30T07:12:48;12.50;99.90
58413;DHT22;44209;52.952;6.790;2023-09-30T07:15:14;12.60;99.90
58413;DHT22;44209;52.952;6.790;2023-09-30T07:17:40;12.70;99.90
58413;DHT22;44209;52.952;6.790;2023-09-30T07:20:07;12.70;99.90
58413;DHT22;44209;52.952;6.790;2023-09-30T07:22:34;12.80;99.90
58413;DHT22;44209;52.952;6.790;2023-09-30T07:25:00;12.90;99.90
58413;DHT22;44209;52.952;6.790;2023-09-30T07:27:25;13.00;99.90
58413;DHT22;44209;52.952;6.790;2023-09-30T07:29:51;13.10;99.90
58413;DHT22;44209;52.952;6.790;2023-09-30T07:32:17;13.20;99.90
58413;DHT22;44209;52.952;6.790;2023-09-30T07:34:42;13.30;99.90
58413;DHT22;44209;52.952;6.790;2023-09-30T07:37:09;13.30;99.90
58413;DHT22;44209;52.952;6.790;2023-09-30T07:39:35;13.40;99.90
58413;DHT22;44209;52.952;6.790;2023-09-30T07:42:01;13.50;99.90
58413;DHT22;44209;52.952;6.790;2023-09-30T07:44:27;13.60;99.90
58413;DHT22;44209;52.952;6.790;2023-09-30T07:46:53;13.60;99.90
58413;DHT22;44209;52.952;6.790;2023-09-30T07:49:19;13.70;99.90
58413;DHT22;44209;52.952;6.790;2023-09-30T07:51:45;13.80;99.90
58413;DHT22;44209;52.952;6.790;2023-09-30T07:54:11;13.90;99.90
58413;DHT22;44209;52.952;6.790;2023-09-30T07:56:37;13.90;99.90
58413;DHT22;44209;52.952;6.790;2023-09-30T07:59:04;14.00;99.90
58413;DHT22;44209;52.952;6.790;2023-09-30T08:01:31;14.10;99.90
58413;DHT22;44209;52.952;6.790;2023-09-30T08:03:57;14.20;99.90
58413;DHT22;44209;52.952;6.790;2023-09-30T08:06:22;14.30;99.90
58413;DHT22;44209;52.952;6.790;2023-09-30T08:08:49;14.30;99.90
58413;DHT22;44209;52.952;6.790;2023-09-30T08:11:15;14.40;99.90
58413;DHT22;44209;52.952;6.790;2023-09-30T08:13:43;14.50;99.90
58413;DHT22;44209;52.952;6.790;2023-09-30T08:16:08;14.60;99.90
58413;DHT22;44209;52.952;6.790;2023-09-30T08:18:34;14.60;99.90
58413;DHT22;44209;52.952;6.790;2023-09-30T08:21:01;14.70;99.90
58413;DHT22;44209;52.952;6.790;2023-09-30T08:23:26;14.80;99.90
58413;DHT22;44209;52.952;6.790;2023-09-30T08:25:52;14.90;99.90
58413;DHT22;44209;52.952;6.790;2023-09-30T08:28:19;15.00;99.90
58413;DHT22;44209;52.952;6.790;2023-09-30T08:30:45;15.10;99.90
58413;DHT22;44209;52.952;6.790;2023-09-30T08:33:11;15.10;99.90
58413;DHT22;44209;52.952;6.790;2023-09-30T08:35:37;15.20;99.90
58413;DHT22;44209;52.952;6.790;2023-09-30T08:38:03;15.30;99.90
58413;DHT22;44209;52.952;6.790;2023-09-30T08:40:29;15.40;99.90
58413;DHT22;44209;52.952;6.790;2023-09-30T08:42:55;15.50;99.90
58413;DHT22;44209;52.952;6.790;2023-09-30T08:45:21;15.50;99.90
58413;DHT22;44209;52.952;6.790;2023-09-30T08:47:47;15.60;99.90
58413;DHT22;44209;52.952;6.790;2023-09-30T08:50:13;15.70;99.90
58413;DHT22;44209;52.952;6.790;2023-09-30T08:52:41;15.90;99.90
58413;DHT22;44209;52.952;6.790;2023-09-30T08:55:11;15.90;99.90
58413;DHT22;44209;52.952;6.790;2023-09-30T08:57:39;16.00;99.90
58413;DHT22;44209;52.952;6.790;2023-09-30T09:00:06;16.10;99.90
58413;DHT22;44209;52.952;6.790;2023-09-30T09:02:35;16.20;99.90
58413;DHT22;44209;52.952;6.790;2023-09-30T09:05:02;16.20;99.90
58413;DHT22;44209;52.952;6.790;2023-09-30T09:07:27;16.30;99.90
58413;DHT22;44209;52.952;6.790;2023-09-30T09:10:06;16.50;99.90
58413;DHT22;44209;52.952;6.790;2023-09-30T09:12:42;16.60;99.90
58413;DHT22;44209;52.952;6.790;2023-09-30T09:15:23;16.60;99.90
58413;DHT22;44209;52.952;6.790;2023-09-30T09:17:49;16.70;99.90
58413;DHT22;44209;52.952;6.790;2023-09-30T09:20:19;16.70;99.90
58413;DHT22;44209;52.952;6.790;2023-09-30T09:22:50;16.70;99.90
58413;DHT22;44209;52.952;6.790;2023-09-30T09:25:18;16.80;99.90
58413;DHT22;44209;52.952;6.790;2023-09-30T09:27:44;16.80;99.90
58413;DHT22;44209;52.952;6.790;2023-09-30T09:30:20;16.90;99.90
58413;DHT22;44209;52.952;6.790;2023-09-30T09:35:27;17.10;99.90
58413;DHT22;44209;52.952;6.790;2023-09-30T09:40:38;17.20;99.90
58413;DHT22;44209;52.952;6.790;2023-09-30T09:43:06;17.30;99.90
58413;DHT22;44209;52.952;6.790;2023-09-30T09:45:36;17.40;99.90
58413;DHT22;44209;52.952;6.790;2023-09-30T09:48:06;17.40;99.90
58413;DHT22;44209;52.952;6.790;2023-09-30T09:50:32;17.40;99.90
58413;DHT22;44209;52.952;6.790;2023-09-30T09:52:59;17.50;99.90
58413;DHT22;44209;52.952;6.790;2023-09-30T09:55:27;17.50;99.90
58413;DHT22;44209;52.952;6.790;2023-09-30T09:57:53;17.60;99.90
58413;DHT22;44209;52.952;6.790;2023-09-30T10:00:22;17.70;99.90
58413;DHT22;44209;52.952;6.790;2023-09-30T10:02:49;17.80;99.90
58413;DHT22;44209;52.952;6.790;2023-09-30T10:05:16;17.80;99.90
58413;DHT22;44209;52.952;6.790;2023-09-30T10:08:05;17.80;99.90
58413;DHT22;44209;52.952;6.790;2023-09-30T10:10:36;17.80;99.90
58413;DHT22;44209;52.952;6.790;2023-09-30T10:13:03;17.90;99.90
58413;DHT22;44209;52.952;6.790;2023-09-30T10:18:03;18.00;99.90
58413;DHT22;44209;52.952;6.790;2023-09-30T10:20:31;18.10;99.90
58413;DHT22;44209;52.952;6.790;2023-09-30T10:23:26;18.20;99.90
58413;DHT22;44209;52.952;6.790;2023-09-30T10:26:13;18.30;99.90
58413;DHT22;44209;52.952;6.790;2023-09-30T10:28:42;18.30;99.90
58413;DHT22;44209;52.952;6.790;2023-09-30T10:31:22;18.30;99.90
58413;DHT22;44209;52.952;6.790;2023-09-30T10:36:38;18.60;99.90
58413;DHT22;44209;52.952;6.790;2023-09-30T10:39:10;18.70;99.90
58413;DHT22;44209;52.952;6.790;2023-09-30T10:46:55;18.60;99.90
58413;DHT22;44209;52.952;6.790;2023-09-30T10:51:54;18.60;99.90
58413;DHT22;44209;52.952;6.790;2023-09-30T10:54:25;18.60;99.90
58413;DHT22;44209;52.952;6.790;2023-09-30T10:56:51;18.70;99.90
58413;DHT22;44209;52.952;6.790;2023-09-30T10:59:25;18.70;99.90
58413;DHT22;44209;52.952;6.790;2023-09-30T11:01:52;18.70;99.90
58413;DHT22;44209;52.952;6.790;2023-09-30T11:04:19;18.70;99.90
58413;DHT22;44209;52.952;6.790;2023-09-30T11:06:46;18.60;99.90
58413;DHT22;44209;52.952;6.790;2023-09-30T11:09:22;18.60;99.90
58413;DHT22;44209;52.952;6.790;2023-09-30T11:11:49;18.70;99.90
58413;DHT22;44209;52.952;6.790;2023-09-30T11:14:22;18.70;99.90
58413;DHT22;44209;52.952;6.790;2023-09-30T11:16:50;18.70;99.90
58413;DHT22;44209;52.952;6.790;2023-09-30T11:19:15;18.50;99.90
58413;DHT22;44209;52.952;6.790;2023-09-30T11:21:42;18.40;99.90
58413;DHT22;44209;52.952;6.790;2023-09-30T11:24:11;18.30;99.90
58413;DHT22;44209;52.952;6.790;2023-09-30T11:26:37;18.20;99.90
58413;DHT22;44209;52.952;6.790;2023-09-30T11:29:15;18.10;99.90
58413;DHT22;44209;52.952;6.790;2023-09-30T11:31:46;18.10;99.90
58413;DHT22;44209;52.952;6.790;2023-09-30T11:34:13;18.00;99.90
58413;DHT22;44209;52.952;6.790;2023-09-30T11:36:41;18.00;99.90
58413;DHT22;44209;52.952;6.790;2023-09-30T11:39:08;18.10;99.90
58413;DHT22;44209;52.952;6.790;2023-09-30T11:41:42;18.10;99.90
58413;DHT22;44209;52.952;6.790;2023-09-30T11:44:10;18.10;99.90
58413;DHT22;44209;52.952;6.790;2023-09-30T11:47:06;18.30;99.90
58413;DHT22;44209;52.952;6.790;2023-09-30T11:49:34;18.60;99.90
58413;DHT22;44209;52.952;6.790;2023-09-30T11:52:08;18.70;99.90
58413;DHT22;44209;52.952;6.790;2023-09-30T11:54:36;18.90;99.90
58413;DHT22;44209;52.952;6.790;2023-09-30T11:57:07;19.10;99.90
58413;DHT22;44209;52.952;6.790;2023-09-30T11:59:37;19.10;99.90
58413;DHT22;44209;52.952;6.790;2023-09-30T12:02:04;19.20;99.90
58413;DHT22;44209;52.952;6.790;2023-09-30T12:04:31;19.20;99.90
58413;DHT22;44209;52.952;6.790;2023-09-30T12:06:57;19.30;99.90
58413;DHT22;44209;52.952;6.790;2023-09-30T12:09:24;19.30;99.90
58413;DHT22;44209;52.952;6.790;2023-09-30T12:11:53;19.30;99.90
58413;DHT22;44209;52.952;6.790;2023-09-30T12:14:22;19.30;99.90
58413;DHT22;44209;52.952;6.790;2023-09-30T12:16:48;19.30;99.90
58413;DHT22;44209;52.952;6.790;2023-09-30T12:19:14;19.20;99.90
58413;DHT22;44209;52.952;6.790;2023-09-30T12:21:42;19.00;99.90
58413;DHT22;44209;52.952;6.790;2023-09-30T12:24:08;18.90;99.90
58413;DHT22;44209;52.952;6.790;2023-09-30T12:26:39;18.80;99.90
58413;DHT22;44209;52.952;6.790;2023-09-30T12:29:06;18.60;99.90
58413;DHT22;44209;52.952;6.790;2023-09-30T12:31:34;18.50;99.90
58413;DHT22;44209;52.952;6.790;2023-09-30T12:34:00;18.40;99.90
58413;DHT22;44209;52.952;6.790;2023-09-30T12:36:26;18.40;99.90
58413;DHT22;44209;52.952;6.790;2023-09-30T12:38:51;18.50;99.90
58413;DHT22;44209;52.952;6.790;2023-09-30T12:41:17;18.50;99.90
58413;DHT22;44209;52.952;6.790;2023-09-30T12:43:44;18.70;99.90
58413;DHT22;44209;52.952;6.790;2023-09-30T12:46:10;18.70;99.90
58413;DHT22;44209;52.952;6.790;2023-09-30T12:48:39;18.70;99.90
58413;DHT22;44209;52.952;6.790;2023-09-30T12:51:05;18.80;99.90
58413;DHT22;44209;52.952;6.790;2023-09-30T12:53:33;18.80;99.90
58413;DHT22;44209;52.952;6.790;2023-09-30T12:56:00;18.80;99.90
58413;DHT22;44209;52.952;6.790;2023-09-30T12:58:26;18.80;99.90
58413;DHT22;44209;52.952;6.790;2023-09-30T13:00:55;18.80;99.90
58413;DHT22;44209;52.952;6.790;2023-09-30T13:03:21;18.70;99.90
58413;DHT22;44209;52.952;6.790;2023-09-30T13:05:46;18.80;99.90
58413;DHT22;44209;52.952;6.790;2023-09-30T13:08:12;18.70;99.90
58413;DHT22;44209;52.952;6.790;2023-09-30T13:10:38;18.80;99.90
58413;DHT22;44209;52.952;6.790;2023-09-30T13:13:04;18.90;99.90
58413;DHT22;44209;52.952;6.790;2023-09-30T13:15:29;18.90;99.90
58413;DHT22;44209;52.952;6.790;2023-09-30T13:17:55;19.00;99.90
58413;DHT22;44209;52.952;6.790;2023-09-30T13:20:21;19.10;99.90
58413;DHT22;44209;52.952;6.790;2023-09-30T13:22:46;19.10;99.90
58413;DHT22;44209;52.952;6.790;2023-09-30T13:25:13;19.20;99.90
58413;DHT22;44209;52.952;6.790;2023-09-30T13:27:39;19.30;99.90
58413;DHT22;44209;52.952;6.790;2023-09-30T13:30:07;19.40;99.90
58413;DHT22;44209;52.952;6.790;2023-09-30T13:32:34;19.50;99.90
58413;DHT22;44209;52.952;6.790;2023-09-30T13:35:05;19.60;99.90
58413;DHT22;44209;52.952;6.790;2023-09-30T13:37:33;19.50;99.90
58413;DHT22;44209;52.952;6.790;2023-09-30T13:40:00;19.50;99.90
58413;DHT22;44209;52.952;6.790;2023-09-30T13:42:27;19.40;99.90
58413;DHT22;44209;52.952;6.790;2023-09-30T13:44:52;19.30;99.90
58413;DHT22;44209;52.952;6.790;2023-09-30T13:47:18;19.20;99.90
58413;DHT22;44209;52.952;6.790;2023-09-30T13:49:44;19.20;99.90
58413;DHT22;44209;52.952;6.790;2023-09-30T13:52:09;19.20;99.90
58413;DHT22;44209;52.952;6.790;2023-09-30T13:54:35;19.30;99.90
58413;DHT22;44209;52.952;6.790;2023-09-30T13:57:01;19.40;99.90
58413;DHT22;44209;52.952;6.790;2023-09-30T13:59:26;19.50;99.90
58413;DHT22;44209;52.952;6.790;2023-09-30T14:01:53;19.60;99.90
58413;DHT22;44209;52.952;6.790;2023-09-30T14:04:19;19.60;99.90
58413;DHT22;44209;52.952;6.790;2023-09-30T14:06:44;19.70;99.90
58413;DHT22;44209;52.952;6.790;2023-09-30T14:09:10;19.60;99.90
58413;DHT22;44209;52.952;6.790;2023-09-30T14:11:41;19.60;99.90
58413;DHT22;44209;52.952;6.790;2023-09-30T14:14:07;19.60;99.90
58413;DHT22;44209;52.952;6.790;2023-09-30T14:16:35;19.60;99.90
58413;DHT22;44209;52.952;6.790;2023-09-30T14:19:02;19.60;99.90
58413;DHT22;44209;52.952;6.790;2023-09-30T14:21:29;19.60;99.90
58413;DHT22;44209;52.952;6.790;2023-09-30T14:23:54;19.60;99.90
58413;DHT22;44209;52.952;6.790;2023-09-30T14:26:20;19.50;99.90
58413;DHT22;44209;52.952;6.790;2023-09-30T14:28:46;19.40;99.90
58413;DHT22;44209;52.952;6.790;2023-09-30T14:31:11;19.40;99.90
58413;DHT22;44209;52.952;6.790;2023-09-30T14:33:37;19.40;99.90
58413;DHT22;44209;52.952;6.790;2023-09-30T14:36:03;19.50;99.90
58413;DHT22;44209;52.952;6.790;2023-09-30T14:38:33;19.40;99.90
58413;DHT22;44209;52.952;6.790;2023-09-30T14:40:59;19.50;99.90
58413;DHT22;44209;52.952;6.790;2023-09-30T14:43:24;19.40;99.90
58413;DHT22;44209;52.952;6.790;2023-09-30T14:45:50;19.40;99.90
58413;DHT22;44209;52.952;6.790;2023-09-30T14:48:16;19.30;99.90
58413;DHT22;44209;52.952;6.790;2023-09-30T14:50:51;19.30;99.90
58413;DHT22;44209;52.952;6.790;2023-09-30T14:53:17;19.30;99.90
58413;DHT22;44209;52.952;6.790;2023-09-30T14:55:45;19.20;99.90
58413;DHT22;44209;52.952;6.790;2023-09-30T14:58:11;19.20;99.90
58413;DHT22;44209;52.952;6.790;2023-09-30T15:00:37;19.10;99.90
58413;DHT22;44209;52.952;6.790;2023-09-30T15:03:02;19.10;99.90
58413;DHT22;44209;52.952;6.790;2023-09-30T15:05:29;19.00;99.90
58413;DHT22;44209;52.952;6.790;2023-09-30T15:07:54;19.00;99.90
58413;DHT22;44209;52.952;6.790;2023-09-30T15:10:20;18.90;99.90
58413;DHT22;44209;52.952;6.790;2023-09-30T15:12:46;18.90;99.90
58413;DHT22;44209;52.952;6.790;2023-09-30T15:15:12;18.90;99.90
58413;DHT22;44209;52.952;6.790;2023-09-30T15:17:39;19.00;99.90
58413;DHT22;44209;52.952;6.790;2023-09-30T15:20:05;19.00;99.90
58413;DHT22;44209;52.952;6.790;2023-09-30T15:22:32;19.00;99.90
58413;DHT22;44209;52.952;6.790;2023-09-30T15:24:58;19.00;99.90
58413;DHT22;44209;52.952;6.790;2023-09-30T15:27:24;19.00;99.90
58413;DHT22;44209;52.952;6.790;2023-09-30T15:29:50;19.00;99.90
58413;DHT22;44209;52.952;6.790;2023-09-30T15:32:16;18.90;99.90
58413;DHT22;44209;52.952;6.790;2023-09-30T15:34:42;18.90;99.90
58413;DHT22;44209;52.952;6.790;2023-09-30T15:37:09;18.80;99.90
58413;DHT22;44209;52.952;6.790;2023-09-30T15:39:39;18.70;99.90
58413;DHT22;44209;52.952;6.790;2023-09-30T15:42:06;18.60;99.90
58413;DHT22;44209;52.952;6.790;2023-09-30T15:44:31;18.60;99.90
58413;DHT22;44209;52.952;6.790;2023-09-30T15:46:58;18.60;99.90
58413;DHT22;44209;52.952;6.790;2023-09-30T15:49:23;18.50;99.90